sensor_id;sensor_type;location;lat;lon;timestamp;pressure;altitude;pressure_sealevel;temperature
13497;BMP180;6820;49.374;8.452;2024-01-30T00:00:19;101988.97;;;11.79
13497;BMP180;6820;49.374;8.452;2024-01-30T00:04:21;101980.31;;;11.77
13497;BMP180;6820;49.374;8.452;2024-01-30T00:08:22;101988.81;;;11.78
13497;BMP180;6820;49.374;8.452;2024-01-30T00:12:24;101987.94;;;11.77
13497;BMP180;6820;49.374;8.452;2024-01-30T00:16:26;101983.88;;;11.69
13497;BMP180;6820;49.374;8.452;2024-01-30T00:20:28;101996.84;;;11.72
13497;BMP180;6820;49.374;8.452;2024-01-30T00:24:29;101991.03;;;11.63
13497;BMP180;6820;49.374;8.452;2024-01-30T00:28:31;101994.34;;;11.62
13497;BMP180;6820;49.374;8.452;2024-01-30T00:32:33;102001.19;;;11.63
13497;BMP180;6820;49.374;8.452;2024-01-30T00:36:34;102001.81;;;11.61
13497;BMP180;6820;49.374;8.452;2024-01-30T00:40:36;102009.81;;;11.56
13497;BMP180;6820;49.374;8.452;2024-01-30T00:44:38;102021.38;;;11.52
13497;BMP180;6820;49.374;8.452;2024-01-30T00:48:40;102020.50;;;11.52
13497;BMP180;6820;49.374;8.452;2024-01-30T00:52:41;102005.00;;;11.49
13497;BMP180;6820;49.374;8.452;2024-01-30T00:56:46;102007.66;;;11.40
13497;BMP180;6820;49.374;8.452;2024-01-30T01:00:47;102005.22;;;11.32
13497;BMP180;6820;49.374;8.452;2024-01-30T01:04:49;102003.97;;;11.27
13497;BMP180;6820;49.374;8.452;2024-01-30T01:08:51;102009.56;;;11.23
13497;BMP180;6820;49.374;8.452;2024-01-30T01:12:53;102005.88;;;11.20
13497;BMP180;6820;49.374;8.452;2024-01-30T01:17:02;101998.91;;;11.17
13497;BMP180;6820;49.374;8.452;2024-01-30T01:21:04;101990.91;;;11.13
13497;BMP180;6820;49.374;8.452;2024-01-30T01:25:06;101998.88;;;11.07
13497;BMP180;6820;49.374;8.452;2024-01-30T01:29:09;101992.53;;;11.02
13497;BMP180;6820;49.374;8.452;2024-01-30T01:33:13;101988.97;;;11.00
13497;BMP180;6820;49.374;8.452;2024-01-30T01:37:16;101998.63;;;10.94
13497;BMP180;6820;49.374;8.452;2024-01-30T01:41:18;101995.81;;;10.92
13497;BMP180;6820;49.374;8.452;2024-01-30T01:45:20;101993.91;;;10.89
13497;BMP180;6820;49.374;8.452;2024-01-30T01:49:25;101986.31;;;10.89
13497;BMP180;6820;49.374;8.452;2024-01-30T01:53:28;101992.78;;;10.86
13497;BMP180;6820;49.374;8.452;2024-01-30T01:57:30;101988.19;;;10.82
13497;BMP180;6820;49.374;8.452;2024-01-30T02:01:32;101981.22;;;10.79
13497;BMP180;6820;49.374;8.452;2024-01-30T02:05:35;101980.06;;;10.76
13497;BMP180;6820;49.374;8.452;2024-01-30T02:09:37;101986.66;;;10.74
13497;BMP180;6820;49.374;8.452;2024-01-30T02:13:38;101987.56;;;10.74
13497;BMP180;6820;49.374;8.452;2024-01-30T02:17:42;101996.16;;;10.76
13497;BMP180;6820;49.374;8.452;2024-01-30T02:21:45;101986.53;;;10.72
13497;BMP180;6820;49.374;8.452;2024-01-30T02:25:47;101985.50;;;10.70
13497;BMP180;6820;49.374;8.452;2024-01-30T02:29:49;101991.63;;;10.72
13497;BMP180;6820;49.374;8.452;2024-01-30T02:33:52;101991.22;;;10.68
13497;BMP180;6820;49.374;8.452;2024-01-30T02:37:53;101986.91;;;10.67
13497;BMP180;6820;49.374;8.452;2024-01-30T02:41:55;101989.19;;;10.64
13497;BMP180;6820;49.374;8.452;2024-01-30T02:45:57;101996.53;;;10.61
13497;BMP180;6820;49.374;8.452;2024-01-30T02:49:59;101999.19;;;10.63
13497;BMP180;6820;49.374;8.452;2024-01-30T02:54:01;101990.72;;;10.62
13497;BMP180;6820;49.374;8.452;2024-01-30T02:58:03;101995.16;;;10.64
13497;BMP180;6820;49.374;8.452;2024-01-30T03:02:05;101991.47;;;10.61
13497;BMP180;6820;49.374;8.452;2024-01-30T03:06:07;101979.53;;;10.60
13497;BMP180;6820;49.374;8.452;2024-01-30T03:10:08;101984.50;;;10.59
13497;BMP180;6820;49.374;8.452;2024-01-30T03:14:10;101970.94;;;10.58
13497;BMP180;6820;49.374;8.452;2024-01-30T03:18:12;101975.88;;;10.57
13497;BMP180;6820;49.374;8.452;2024-01-30T03:22:14;101978.53;;;10.58
13497;BMP180;6820;49.374;8.452;2024-01-30T03:26:16;101984.50;;;10.59
13497;BMP180;6820;49.374;8.452;2024-01-30T03:30:17;101983.72;;;10.60
13497;BMP180;6820;49.374;8.452;2024-01-30T03:34:19;101982.22;;;10.62
13497;BMP180;6820;49.374;8.452;2024-01-30T03:38:21;101991.59;;;10.63
13497;BMP180;6820;49.374;8.452;2024-01-30T03:42:22;101987.03;;;10.59
13497;BMP180;6820;49.374;8.452;2024-01-30T03:46:24;101983.31;;;10.55
13497;BMP180;6820;49.374;8.452;2024-01-30T03:50:26;101983.84;;;10.51
13497;BMP180;6820;49.374;8.452;2024-01-30T03:54:29;101988.75;;;10.50
13497;BMP180;6820;49.374;8.452;2024-01-30T03:58:31;101985.97;;;10.47
13497;BMP180;6820;49.374;8.452;2024-01-30T04:02:32;101973.66;;;10.41
13497;BMP180;6820;49.374;8.452;2024-01-30T04:06:34;101978.63;;;10.40
13497;BMP180;6820;49.374;8.452;2024-01-30T04:10:36;101991.91;;;10.37
13497;BMP180;6820;49.374;8.452;2024-01-30T04:14:39;101979.97;;;10.36
13497;BMP180;6820;49.374;8.452;2024-01-30T04:18:40;101989.38;;;10.37
13497;BMP180;6820;49.374;8.452;2024-01-30T04:22:46;101983.69;;;10.40
13497;BMP180;6820;49.374;8.452;2024-01-30T04:26:47;101988.13;;;10.42
13497;BMP180;6820;49.374;8.452;2024-01-30T04:30:49;101984.41;;;10.39
13497;BMP180;6820;49.374;8.452;2024-01-30T04:34:51;101991.91;;;10.37
13497;BMP180;6820;49.374;8.452;2024-01-30T04:38:53;101984.16;;;10.36
13497;BMP180;6820;49.374;8.452;2024-01-30T04:42:54;101991.75;;;10.36
13497;BMP180;6820;49.374;8.452;2024-01-30T04:46:56;101982.88;;;10.31
13497;BMP180;6820;49.374;8.452;2024-01-30T04:51:00;101998.84;;;10.30
13497;BMP180;6820;49.374;8.452;2024-01-30T04:55:04;101999.59;;;10.29
13497;BMP180;6820;49.374;8.452;2024-01-30T04:59:06;101995.16;;;10.27
13497;BMP180;6820;49.374;8.452;2024-01-30T05:03:10;102003.50;;;10.26
13497;BMP180;6820;49.374;8.452;2024-01-30T05:07:11;102001.38;;;10.30
13497;BMP180;6820;49.374;8.452;2024-01-30T05:11:13;102001.63;;;10.33
13497;BMP180;6820;49.374;8.452;2024-01-30T05:15:15;102007.13;;;10.37
13497;BMP180;6820;49.374;8.452;2024-01-30T05:19:16;102007.84;;;10.36
13497;BMP180;6820;49.374;8.452;2024-01-30T05:23:19;102007.72;;;10.35
13497;BMP180;6820;49.374;8.452;2024-01-30T05:27:21;102005.06;;;10.33
13497;BMP180;6820;49.374;8.452;2024-01-30T05:31:22;102011.66;;;10.32
13497;BMP180;6820;49.374;8.452;2024-01-30T05:35:24;102014.03;;;10.30
13497;BMP180;6820;49.374;8.452;2024-01-30T05:39:26;102020.63;;;10.28
13497;BMP180;6820;49.374;8.452;2024-01-30T05:43:27;102026.44;;;10.27
13497;BMP180;6820;49.374;8.452;2024-01-30T05:47:29;102022.78;;;10.24
13497;BMP180;6820;49.374;8.452;2024-01-30T05:51:31;102024.28;;;10.22
13497;BMP180;6820;49.374;8.452;2024-01-30T05:55:35;102022.63;;;10.22
13497;BMP180;6820;49.374;8.452;2024-01-30T05:59:36;102024.00;;;10.19
13497;BMP180;6820;49.374;8.452;2024-01-30T06:03:43;102018.78;;;10.17
13497;BMP180;6820;49.374;8.452;2024-01-30T06:07:45;102020.59;;;10.18
13497;BMP180;6820;49.374;8.452;2024-01-30T06:11:47;102022.22;;;10.18
13497;BMP180;6820;49.374;8.452;2024-01-30T06:15:48;102026.91;;;10.13
13497;BMP180;6820;49.374;8.452;2024-01-30T06:19:50;102011.28;;;10.09
13497;BMP180;6820;49.374;8.452;2024-01-30T06:23:52;102017.13;;;10.08
13497;BMP180;6820;49.374;8.452;2024-01-30T06:27:53;102015.22;;;10.05
13497;BMP180;6820;49.374;8.452;2024-01-30T06:31:55;102016.09;;;10.06
13497;BMP180;6820;49.374;8.452;2024-01-30T06:35:57;102004.81;;;10.03
13497;BMP180;6820;49.374;8.452;2024-01-30T06:39:58;102021.63;;;10.02
13497;BMP180;6820;49.374;8.452;2024-01-30T06:44:02;102018.09;;;10.00
13497;BMP180;6820;49.374;8.452;2024-01-30T06:48:04;102024.50;;;9.97
13497;BMP180;6820;49.374;8.452;2024-01-30T06:52:06;102016.19;;;9.98
13497;BMP180;6820;49.374;8.452;2024-01-30T06:56:08;102015.28;;;9.97
13497;BMP180;6820;49.374;8.452;2024-01-30T07:00:10;102020.22;;;9.96
13497;BMP180;6820;49.374;8.452;2024-01-30T07:04:12;102028.41;;;9.93
13497;BMP180;6820;49.374;8.452;2024-01-30T07:08:15;102026.38;;;9.89
13497;BMP180;6820;49.374;8.452;2024-01-30T07:12:18;102026.97;;;9.87
13497;BMP180;6820;49.374;8.452;2024-01-30T07:16:20;102020.72;;;9.83
13497;BMP180;6820;49.374;8.452;2024-01-30T07:20:22;102028.19;;;9.82
13497;BMP180;6820;49.374;8.452;2024-01-30T07:24:24;102028.06;;;9.80
13497;BMP180;6820;49.374;8.452;2024-01-30T07:28:25;102028.97;;;9.81
13497;BMP180;6820;49.374;8.452;2024-01-30T07:32:28;102026.44;;;9.81
13497;BMP180;6820;49.374;8.452;2024-01-30T07:36:29;102035.19;;;9.84
13497;BMP180;6820;49.374;8.452;2024-01-30T07:40:31;102026.81;;;9.85
13497;BMP180;6820;49.374;8.452;2024-01-30T07:44:34;102028.78;;;9.88
13497;BMP180;6820;49.374;8.452;2024-01-30T07:48:36;102027.38;;;9.91
13497;BMP180;6820;49.374;8.452;2024-01-30T07:52:38;102020.97;;;9.95
13497;BMP180;6820;49.374;8.452;2024-01-30T07:56:40;102035.81;;;10.00
13497;BMP180;6820;49.374;8.452;2024-01-30T08:00:43;102030.53;;;10.07
13497;BMP180;6820;49.374;8.452;2024-01-30T08:04:45;102045.16;;;10.19
13497;BMP180;6820;49.374;8.452;2024-01-30T08:08:50;102047.25;;;10.33
13497;BMP180;6820;49.374;8.452;2024-01-30T08:12:54;102056.06;;;10.46
13497;BMP180;6820;49.374;8.452;2024-01-30T08:16:56;102064.06;;;10.61
13497;BMP180;6820;49.374;8.452;2024-01-30T08:20:57;102054.50;;;10.76
13497;BMP180;6820;49.374;8.452;2024-01-30T08:24:59;102052.88;;;10.87
13497;BMP180;6820;49.374;8.452;2024-01-30T08:29:01;102058.00;;;10.96
13497;BMP180;6820;49.374;8.452;2024-01-30T08:33:03;102048.97;;;11.00
13497;BMP180;6820;49.374;8.452;2024-01-30T08:37:05;102054.19;;;11.11
13497;BMP180;6820;49.374;8.452;2024-01-30T08:41:07;102050.66;;;11.19
13497;BMP180;6820;49.374;8.452;2024-01-30T08:45:09;102050.56;;;11.27
13497;BMP180;6820;49.374;8.452;2024-01-30T08:49:12;102054.59;;;11.35
13497;BMP180;6820;49.374;8.452;2024-01-30T08:53:16;102051.06;;;11.43
13497;BMP180;6820;49.374;8.452;2024-01-30T08:57:18;102050.69;;;11.49
13497;BMP180;6820;49.374;8.452;2024-01-30T09:01:20;102051.22;;;11.55
13497;BMP180;6820;49.374;8.452;2024-01-30T09:05:21;102056.41;;;11.56
13497;BMP180;6820;49.374;8.452;2024-01-30T09:09:23;102052.59;;;11.61
13497;BMP180;6820;49.374;8.452;2024-01-30T09:13:25;102064.78;;;11.75
13497;BMP180;6820;49.374;8.452;2024-01-30T09:17:27;102062.34;;;11.86
13497;BMP180;6820;49.374;8.452;2024-01-30T09:21:29;102057.13;;;11.94
13497;BMP180;6820;49.374;8.452;2024-01-30T09:25:31;102063.72;;;12.02
13497;BMP180;6820;49.374;8.452;2024-01-30T09:29:32;102065.63;;;12.05
13497;BMP180;6820;49.374;8.452;2024-01-30T09:33:35;102062.19;;;12.04
13497;BMP180;6820;49.374;8.452;2024-01-30T09:37:38;102061.44;;;12.05
13497;BMP180;6820;49.374;8.452;2024-01-30T09:41:45;102062.19;;;12.04
13497;BMP180;6820;49.374;8.452;2024-01-30T09:45:50;102074.72;;;12.13
13497;BMP180;6820;49.374;8.452;2024-01-30T09:49:52;102074.50;;;12.10
13497;BMP180;6820;49.374;8.452;2024-01-30T09:53:54;102074.72;;;12.13
13497;BMP180;6820;49.374;8.452;2024-01-30T09:57:56;102070.50;;;12.23
13497;BMP180;6820;49.374;8.452;2024-01-30T10:01:58;102071.22;;;12.42
13497;BMP180;6820;49.374;8.452;2024-01-30T10:06:01;102060.88;;;12.50
13497;BMP180;6820;49.374;8.452;2024-01-30T10:10:05;102059.81;;;12.58
13497;BMP180;6820;49.374;8.452;2024-01-30T10:14:07;102072.88;;;12.72
13497;BMP180;6820;49.374;8.452;2024-01-30T10:18:09;102070.06;;;12.79
13497;BMP180;6820;49.374;8.452;2024-01-30T10:22:11;102073.22;;;12.86
13497;BMP180;6820;49.374;8.452;2024-01-30T10:26:13;102065.75;;;12.99
13497;BMP180;6820;49.374;8.452;2024-01-30T10:30:18;102056.88;;;13.15
13497;BMP180;6820;49.374;8.452;2024-01-30T10:34:20;102055.81;;;13.35
13497;BMP180;6820;49.374;8.452;2024-01-30T10:38:25;102057.19;;;13.41
13497;BMP180;6820;49.374;8.452;2024-01-30T10:42:32;102054.09;;;13.45
13497;BMP180;6820;49.374;8.452;2024-01-30T10:46:35;102041.81;;;13.51
13497;BMP180;6820;49.374;8.452;2024-01-30T10:50:40;102047.81;;;13.63
13497;BMP180;6820;49.374;8.452;2024-01-30T10:54:55;102051.47;;;13.66
13497;BMP180;6820;49.374;8.452;2024-01-30T10:58:57;102047.06;;;13.75
13497;BMP180;6820;49.374;8.452;2024-01-30T11:02:59;102040.63;;;13.80
13497;BMP180;6820;49.374;8.452;2024-01-30T11:07:01;102047.13;;;13.98
13497;BMP180;6820;49.374;8.452;2024-01-30T11:11:08;102056.56;;;14.21
13497;BMP180;6820;49.374;8.452;2024-01-30T11:15:15;102041.00;;;14.41
13497;BMP180;6820;49.374;8.452;2024-01-30T11:19:23;102037.66;;;14.53
13497;BMP180;6820;49.374;8.452;2024-01-30T11:23:28;102041.97;;;14.54
13497;BMP180;6820;49.374;8.452;2024-01-30T11:27:33;102044.28;;;14.62
13497;BMP180;6820;49.374;8.452;2024-01-30T11:31:35;102028.84;;;14.72
13497;BMP180;6820;49.374;8.452;2024-01-30T11:35:38;102020.06;;;14.80
13497;BMP180;6820;49.374;8.452;2024-01-30T11:39:44;102011.34;;;14.90
13497;BMP180;6820;49.374;8.452;2024-01-30T11:43:55;102008.78;;;15.01
13497;BMP180;6820;49.374;8.452;2024-01-30T11:47:57;102014.53;;;15.10
13497;BMP180;6820;49.374;8.452;2024-01-30T11:52:01;102004.94;;;15.19
13497;BMP180;6820;49.374;8.452;2024-01-30T11:56:06;101993.69;;;15.28
13497;BMP180;6820;49.374;8.452;2024-01-30T12:00:15;101988.31;;;15.36
13497;BMP180;6820;49.374;8.452;2024-01-30T12:04:18;101971.81;;;15.44
13497;BMP180;6820;49.374;8.452;2024-01-30T12:08:20;101969.97;;;15.54
13497;BMP180;6820;49.374;8.452;2024-01-30T12:12:26;101955.22;;;15.63
13497;BMP180;6820;49.374;8.452;2024-01-30T12:16:28;101965.06;;;15.70
13497;BMP180;6820;49.374;8.452;2024-01-30T12:20:33;101953.66;;;15.78
13497;BMP180;6820;49.374;8.452;2024-01-30T12:24:35;101954.81;;;15.96
13497;BMP180;6820;49.374;8.452;2024-01-30T12:28:37;101950.69;;;16.11
13497;BMP180;6820;49.374;8.452;2024-01-30T12:32:40;101947.94;;;16.20
13497;BMP180;6820;49.374;8.452;2024-01-30T12:36:47;101945.78;;;16.26
13497;BMP180;6820;49.374;8.452;2024-01-30T12:40:53;101953.16;;;16.35
13497;BMP180;6820;49.374;8.452;2024-01-30T12:44:57;101951.84;;;16.41
13497;BMP180;6820;49.374;8.452;2024-01-30T12:48:59;101944.97;;;16.40
13497;BMP180;6820;49.374;8.452;2024-01-30T12:53:01;101953.13;;;16.47
13497;BMP180;6820;49.374;8.452;2024-01-30T12:57:04;101945.88;;;16.55
13497;BMP180;6820;49.374;8.452;2024-01-30T13:01:05;101952.19;;;16.60
13497;BMP180;6820;49.374;8.452;2024-01-30T13:05:07;101952.88;;;16.57
13497;BMP180;6820;49.374;8.452;2024-01-30T13:09:09;101955.94;;;16.52
13497;BMP180;6820;49.374;8.452;2024-01-30T13:13:11;101958.78;;;16.56
13497;BMP180;6820;49.374;8.452;2024-01-30T13:17:21;101950.41;;;16.59
13497;BMP180;6820;49.374;8.452;2024-01-30T13:21:22;101951.47;;;16.62
13497;BMP180;6820;49.374;8.452;2024-01-30T13:25:24;101958.00;;;16.57
13497;BMP180;6820;49.374;8.452;2024-01-30T13:29:26;101948.25;;;16.52
13497;BMP180;6820;49.374;8.452;2024-01-30T13:33:28;101944.63;;;16.48
13497;BMP180;6820;49.374;8.452;2024-01-30T13:37:30;101959.19;;;16.49
13497;BMP180;6820;49.374;8.452;2024-01-30T13:41:32;101953.50;;;16.53
13497;BMP180;6820;49.374;8.452;2024-01-30T13:45:33;101956.22;;;16.56
13497;BMP180;6820;49.374;8.452;2024-01-30T13:49:35;101945.81;;;16.53
13497;BMP180;6820;49.374;8.452;2024-01-30T13:53:37;101940.69;;;16.53
13497;BMP180;6820;49.374;8.452;2024-01-30T13:57:39;101937.44;;;16.56
13497;BMP180;6820;49.374;8.452;2024-01-30T14:01:40;101940.00;;;16.56
13497;BMP180;6820;49.374;8.452;2024-01-30T14:05:42;101935.75;;;16.56
13497;BMP180;6820;49.374;8.452;2024-01-30T14:09:45;101930.63;;;16.56
13497;BMP180;6820;49.374;8.452;2024-01-30T14:13:47;101939.19;;;16.57
13497;BMP180;6820;49.374;8.452;2024-01-30T14:17:48;101940.00;;;16.56
13497;BMP180;6820;49.374;8.452;2024-01-30T14:21:51;101942.56;;;16.56
13497;BMP180;6820;49.374;8.452;2024-01-30T14:25:52;101948.56;;;16.56
13497;BMP180;6820;49.374;8.452;2024-01-30T14:29:55;101937.34;;;16.54
13497;BMP180;6820;49.374;8.452;2024-01-30T14:33:57;101935.56;;;16.53
13497;BMP180;6820;49.374;8.452;2024-01-30T14:37:59;101940.31;;;16.47
13497;BMP180;6820;49.374;8.452;2024-01-30T14:42:01;101935.22;;;16.47
13497;BMP180;6820;49.374;8.452;2024-01-30T14:46:03;101934.09;;;16.44
13497;BMP180;6820;49.374;8.452;2024-01-30T14:50:08;101936.59;;;16.43
13497;BMP180;6820;49.374;8.452;2024-01-30T14:54:10;101936.78;;;16.46
13497;BMP180;6820;49.374;8.452;2024-01-30T14:58:12;101942.69;;;16.45
13497;BMP180;6820;49.374;8.452;2024-01-30T15:02:14;101937.59;;;16.45
13497;BMP180;6820;49.374;8.452;2024-01-30T15:06:16;101935.59;;;16.41
13497;BMP180;6820;49.374;8.452;2024-01-30T15:10:18;101953.34;;;16.38
13497;BMP180;6820;49.374;8.452;2024-01-30T15:14:20;101951.34;;;16.34
13497;BMP180;6820;49.374;8.452;2024-01-30T15:18:21;101957.09;;;16.30
13497;BMP180;6820;49.374;8.452;2024-01-30T15:22:23;101957.41;;;16.21
13497;BMP180;6820;49.374;8.452;2024-01-30T15:26:25;101967.53;;;16.20
13497;BMP180;6820;49.374;8.452;2024-01-30T15:30:27;101968.03;;;16.15
13497;BMP180;6820;49.374;8.452;2024-01-30T15:34:29;101965.16;;;16.10
13497;BMP180;6820;49.374;8.452;2024-01-30T15:38:31;101975.16;;;16.07
13497;BMP180;6820;49.374;8.452;2024-01-30T15:42:33;101977.84;;;16.09
13497;BMP180;6820;49.374;8.452;2024-01-30T15:46:35;101983.44;;;16.03
13497;BMP180;6820;49.374;8.452;2024-01-30T15:50:36;101977.16;;;15.98
13497;BMP180;6820;49.374;8.452;2024-01-30T15:54:39;101983.06;;;15.97
13497;BMP180;6820;49.374;8.452;2024-01-30T15:58:40;101982.06;;;15.95
13497;BMP180;6820;49.374;8.452;2024-01-30T16:02:42;101991.22;;;15.92
13497;BMP180;6820;49.374;8.452;2024-01-30T16:06:44;101990.13;;;15.88
13497;BMP180;6820;49.374;8.452;2024-01-30T16:10:46;101987.38;;;15.85
13497;BMP180;6820;49.374;8.452;2024-01-30T16:14:47;101990.72;;;15.84
13497;BMP180;6820;49.374;8.452;2024-01-30T16:18:49;102005.88;;;15.82
13497;BMP180;6820;49.374;8.452;2024-01-30T16:22:51;102011.78;;;15.81
13497;BMP180;6820;49.374;8.452;2024-01-30T16:26:56;102014.22;;;15.79
13497;BMP180;6820;49.374;8.452;2024-01-30T16:30:58;102014.09;;;15.78
13497;BMP180;6820;49.374;8.452;2024-01-30T16:35:02;102020.03;;;15.77
13497;BMP180;6820;49.374;8.452;2024-01-30T16:39:04;102025.03;;;15.75
13497;BMP180;6820;49.374;8.452;2024-01-30T16:43:05;102029.25;;;15.75
13497;BMP180;6820;49.374;8.452;2024-01-30T16:47:07;102027.50;;;15.74
13497;BMP180;6820;49.374;8.452;2024-01-30T16:51:09;102033.59;;;15.76
13497;BMP180;6820;49.374;8.452;2024-01-30T16:55:10;102040.34;;;15.75
13497;BMP180;6820;49.374;8.452;2024-01-30T16:59:12;102032.69;;;15.75
13497;BMP180;6820;49.374;8.452;2024-01-30T17:03:14;102036.16;;;15.76
13497;BMP180;6820;49.374;8.452;2024-01-30T17:07:16;102048.03;;;15.75
13497;BMP180;6820;49.374;8.452;2024-01-30T17:11:17;102050.69;;;15.77
13497;BMP180;6820;49.374;8.452;2024-01-30T17:15:19;102060.94;;;15.77
13497;BMP180;6820;49.374;8.452;2024-01-30T17:19:21;102054.94;;;15.76
13497;BMP180;6820;49.374;8.452;2024-01-30T17:23:23;102066.84;;;15.76
13497;BMP180;6820;49.374;8.452;2024-01-30T17:27:27;102065.63;;;15.71
13497;BMP180;6820;49.374;8.452;2024-01-30T17:31:29;102067.31;;;15.70
13497;BMP180;6820;49.374;8.452;2024-01-30T17:35:30;102080.97;;;15.71
13497;BMP180;6820;49.374;8.452;2024-01-30T17:39:32;102082.75;;;15.72
13497;BMP180;6820;49.374;8.452;2024-01-30T17:43:34;102093.66;;;15.69
13497;BMP180;6820;49.374;8.452;2024-01-30T17:47:36;102105.34;;;15.66
13497;BMP180;6820;49.374;8.452;2024-01-30T17:51:38;102100.03;;;15.63
13497;BMP180;6820;49.374;8.452;2024-01-30T17:55:40;102099.22;;;15.64
13497;BMP180;6820;49.374;8.452;2024-01-30T17:59:42;102096.59;;;15.62
13497;BMP180;6820;49.374;8.452;2024-01-30T18:03:44;102096.47;;;15.61
13497;BMP180;6820;49.374;8.452;2024-01-30T18:07:45;102102.47;;;15.61
13497;BMP180;6820;49.374;8.452;2024-01-30T18:11:47;102105.69;;;15.59
13497;BMP180;6820;49.374;8.452;2024-01-30T18:15:49;102119.38;;;15.59
13497;BMP180;6820;49.374;8.452;2024-01-30T18:19:51;102114.38;;;15.61
13497;BMP180;6820;49.374;8.452;2024-01-30T18:23:53;102124.72;;;15.62
13497;BMP180;6820;49.374;8.452;2024-01-30T18:27:54;102122.81;;;15.60
13497;BMP180;6820;49.374;8.452;2024-01-30T18:31:56;102134.50;;;15.56
13497;BMP180;6820;49.374;8.452;2024-01-30T18:35:58;102132.41;;;15.51
13497;BMP180;6820;49.374;8.452;2024-01-30T18:40:00;102129.63;;;15.48
13497;BMP180;6820;49.374;8.452;2024-01-30T18:44:01;102134.47;;;15.44
13497;BMP180;6820;49.374;8.452;2024-01-30T18:48:04;102142.81;;;15.41
13497;BMP180;6820;49.374;8.452;2024-01-30T18:52:06;102140.53;;;15.46
13497;BMP180;6820;49.374;8.452;2024-01-30T18:56:07;102143.41;;;15.50
13497;BMP180;6820;49.374;8.452;2024-01-30T19:00:10;102146.38;;;15.56
13497;BMP180;6820;49.374;8.452;2024-01-30T19:04:12;102137.16;;;15.58
13497;BMP180;6820;49.374;8.452;2024-01-30T19:08:13;102140.72;;;15.60
13497;BMP180;6820;49.374;8.452;2024-01-30T19:12:17;102157.13;;;15.63
13497;BMP180;6820;49.374;8.452;2024-01-30T19:16:19;102154.59;;;15.63
13497;BMP180;6820;49.374;8.452;2024-01-30T19:20:21;102162.38;;;15.65
13497;BMP180;6820;49.374;8.452;2024-01-30T19:24:24;102163.94;;;15.63
13497;BMP180;6820;49.374;8.452;2024-01-30T19:28:26;102167.28;;;15.62
13497;BMP180;6820;49.374;8.452;2024-01-30T19:32:28;102170.38;;;15.58
13497;BMP180;6820;49.374;8.452;2024-01-30T19:36:30;102179.41;;;15.53
13497;BMP180;6820;49.374;8.452;2024-01-30T19:40:31;102192.84;;;15.51
13497;BMP180;6820;49.374;8.452;2024-01-30T19:44:33;102186.88;;;15.50
13497;BMP180;6820;49.374;8.452;2024-01-30T19:48:35;102200.97;;;15.45
13497;BMP180;6820;49.374;8.452;2024-01-30T19:52:37;102212.56;;;15.40
13497;BMP180;6820;49.374;8.452;2024-01-30T19:56:40;102201.91;;;15.34
13497;BMP180;6820;49.374;8.452;2024-01-30T20:00:42;102203.47;;;15.32
13497;BMP180;6820;49.374;8.452;2024-01-30T20:04:44;102203.47;;;15.32
13497;BMP180;6820;49.374;8.452;2024-01-30T20:08:46;102202.91;;;15.36
13497;BMP180;6820;49.374;8.452;2024-01-30T20:12:48;102203.91;;;15.38
13497;BMP180;6820;49.374;8.452;2024-01-30T20:16:51;102208.22;;;15.39
13497;BMP180;6820;49.374;8.452;2024-01-30T20:20:53;102200.69;;;15.41
13497;BMP180;6820;49.374;8.452;2024-01-30T20:24:54;102202.44;;;15.42
13497;BMP180;6820;49.374;8.452;2024-01-30T20:29:11;102203.44;;;15.44
13497;BMP180;6820;49.374;8.452;2024-01-30T20:33:13;102202.53;;;15.43
13497;BMP180;6820;49.374;8.452;2024-01-30T20:37:17;102217.00;;;15.43
13497;BMP180;6820;49.374;8.452;2024-01-30T20:41:20;102211.78;;;15.41
13497;BMP180;6820;49.374;8.452;2024-01-30T20:45:21;102212.34;;;15.49
13497;BMP180;6820;49.374;8.452;2024-01-30T20:49:24;102215.97;;;15.52
13497;BMP180;6820;49.374;8.452;2024-01-30T20:53:26;102212.75;;;15.54
13497;BMP180;6820;49.374;8.452;2024-01-30T20:57:28;102208.59;;;15.56
13497;BMP180;6820;49.374;8.452;2024-01-30T21:01:29;102210.06;;;15.53
13497;BMP180;6820;49.374;8.452;2024-01-30T21:05:31;102198.84;;;15.51
13497;BMP180;6820;49.374;8.452;2024-01-30T21:09:33;102210.94;;;15.53
13497;BMP180;6820;49.374;8.452;2024-01-30T21:13:35;102200.25;;;15.59
13497;BMP180;6820;49.374;8.452;2024-01-30T21:17:37;102202.16;;;15.61
13497;BMP180;6820;49.374;8.452;2024-01-30T21:21:39;102201.94;;;15.58
13497;BMP180;6820;49.374;8.452;2024-01-30T21:25:40;102204.88;;;15.52
13497;BMP180;6820;49.374;8.452;2024-01-30T21:29:42;102211.16;;;15.56
13497;BMP180;6820;49.374;8.452;2024-01-30T21:33:44;102211.16;;;15.56
13497;BMP180;6820;49.374;8.452;2024-01-30T21:37:46;102208.72;;;15.58
13497;BMP180;6820;49.374;8.452;2024-01-30T21:41:48;102196.94;;;15.60
13497;BMP180;6820;49.374;8.452;2024-01-30T21:45:49;102200.38;;;15.60
13497;BMP180;6820;49.374;8.452;2024-01-30T21:49:53;102204.91;;;15.64
13497;BMP180;6820;49.374;8.452;2024-01-30T21:53:55;102205.81;;;15.65
13497;BMP180;6820;49.374;8.452;2024-01-30T21:57:56;102200.91;;;15.68
13497;BMP180;6820;49.374;8.452;2024-01-30T22:01:58;102209.34;;;15.67
13497;BMP180;6820;49.374;8.452;2024-01-30T22:06:00;102203.34;;;15.66
13497;BMP180;6820;49.374;8.452;2024-01-30T22:10:02;102205.16;;;15.67
13497;BMP180;6820;49.374;8.452;2024-01-30T22:14:04;102199.91;;;15.66
13497;BMP180;6820;49.374;8.452;2024-01-30T22:18:06;102198.91;;;15.64
13497;BMP180;6820;49.374;8.452;2024-01-30T22:22:08;102208.38;;;15.65
13497;BMP180;6820;49.374;8.452;2024-01-30T22:26:10;102203.34;;;15.66
13497;BMP180;6820;49.374;8.452;2024-01-30T22:30:12;102189.50;;;15.63
13497;BMP180;6820;49.374;8.452;2024-01-30T22:34:14;102210.81;;;15.63
13497;BMP180;6820;49.374;8.452;2024-01-30T22:38:15;102204.63;;;15.60
13497;BMP180;6820;49.374;8.452;2024-01-30T22:42:17;102213.16;;;15.60
13497;BMP180;6820;49.374;8.452;2024-01-30T22:46:19;102213.97;;;15.59
13497;BMP180;6820;49.374;8.452;2024-01-30T22:50:21;102214.84;;;15.60
13497;BMP180;6820;49.374;8.452;2024-01-30T22:54:23;102218.28;;;15.60
13497;BMP180;6820;49.374;8.452;2024-01-30T22:58:25;102214.94;;;15.61
13497;BMP180;6820;49.374;8.452;2024-01-30T23:02:26;102224.28;;;15.61
13497;BMP180;6820;49.374;8.452;2024-01-30T23:06:28;102211.41;;;15.59
13497;BMP180;6820;49.374;8.452;2024-01-30T23:10:30;102230.47;;;15.64
13497;BMP180;6820;49.374;8.452;2024-01-30T23:14:31;102223.72;;;15.65